createdAt,value
2023-02-12T00:04:38.460Z,102474.56
2023-02-12T00:14:43.662Z,102486.00
2023-02-12T00:24:47.229Z,102469.72
2023-02-12T00:34:52.264Z,102492.06
2023-02-12T00:44:55.947Z,102479.78
2023-02-12T00:55:00.988Z,102482.34
2023-02-12T01:05:05.097Z,102475.69
2023-02-12T01:15:11.709Z,102473.78
2023-02-12T01:25:17.209Z,102480.31
2023-02-12T01:35:23.958Z,102482.53
2023-02-12T01:45:54.623Z,102479.47
2023-02-12T01:56:03.259Z,102476.66
2023-02-12T02:06:12.374Z,102482.56
2023-02-12T02:16:25.386Z,102478.44
2023-02-12T02:26:55.832Z,102481.13
2023-02-12T02:37:09.905Z,102477.31
2023-02-12T02:47:17.227Z,102466.94
2023-02-12T02:57:28.616Z,102472.72
2023-02-12T03:07:38.176Z,102462.78
2023-02-12T03:17:47.989Z,102469.88
2023-02-12T03:28:02.106Z,102476.28
2023-02-12T03:38:17.341Z,102476.38
2023-02-12T03:48:26.935Z,102479.03
2023-02-12T03:58:35.534Z,102489.63
2023-02-12T04:08:39.289Z,102484.78
2023-02-12T04:18:49.396Z,102498.72
2023-02-12T04:29:09.376Z,102497.94
2023-02-12T04:39:21.691Z,102503.13
2023-02-12T04:49:25.752Z,102513.63
2023-02-12T04:59:30.909Z,102528.09
2023-02-12T05:09:34.593Z,102513.03
2023-02-12T05:19:39.637Z,102513.91
2023-02-12T05:29:43.361Z,102516.88
2023-02-12T05:39:50.624Z,102511.28
2023-02-12T05:49:54.260Z,102523.06
2023-02-12T06:00:00.569Z,102530.03
2023-02-12T06:10:05.026Z,102530.00
2023-02-12T06:20:10.671Z,102531.63
2023-02-12T06:30:15.961Z,102551.13
2023-02-12T06:40:22.533Z,102557.78
2023-02-12T06:50:26.728Z,102562.66
2023-02-12T07:00:31.947Z,102572.81
2023-02-12T07:10:35.615Z,102579.38
2023-02-12T07:20:40.763Z,102581.72
2023-02-12T07:30:44.411Z,102597.56
2023-02-12T07:40:51.531Z,102607.25
2023-02-12T07:50:55.164Z,102601.19
2023-02-12T08:01:00.484Z,102610.03
2023-02-12T08:11:04.277Z,102616.03
2023-02-12T08:21:12.865Z,102628.63
2023-02-12T08:31:21.003Z,102633.34
2023-02-12T08:41:29.191Z,102626.56
2023-02-12T08:51:35.809Z,102644.53
2023-02-12T09:01:42.707Z,102640.53
2023-02-12T09:11:46.488Z,102649.94
2023-02-12T09:21:56.075Z,102652.28
2023-02-12T09:32:01.428Z,102648.44
2023-02-12T09:42:22.855Z,102637.72
2023-02-12T09:52:29.536Z,102646.63
2023-02-12T10:02:37.370Z,102645.44
2023-02-12T10:12:51.538Z,102643.75
2023-02-12T10:23:10.375Z,102638.09
2023-02-12T10:33:19.015Z,102626.25
2023-02-12T10:43:25.436Z,102616.81
2023-02-12T10:53:35.840Z,102613.47
2023-02-12T11:03:41.154Z,102598.28
2023-02-12T11:13:50.064Z,102589.06
2023-02-12T11:23:55.155Z,102581.03
2023-02-12T11:34:15.539Z,102577.22
2023-02-12T11:44:27.071Z,102561.75
2023-02-12T11:54:36.424Z,102552.53
2023-02-12T12:04:43.016Z,102547.63
2023-02-12T12:15:09.345Z,102543.97
2023-02-12T12:25:26.334Z,102545.00
2023-02-12T12:35:41.490Z,102537.16
2023-02-12T12:46:11.255Z,102516.56
2023-02-12T12:56:36.088Z,102510.84
2023-02-12T13:07:08.111Z,102494.13
2023-02-12T13:17:20.584Z,102487.09
2023-02-12T13:27:32.028Z,102475.00
2023-02-12T13:37:45.006Z,102466.13
2023-02-12T13:48:08.782Z,102473.28
2023-02-12T13:59:00.852Z,102475.34
2023-02-12T14:09:12.627Z,102472.03
2023-02-12T14:19:40.157Z,102482.44
2023-02-12T14:30:17.596Z,102473.84
2023-02-12T14:40:44.386Z,102477.94
2023-02-12T14:50:52.232Z,102472.09
2023-02-12T15:00:58.642Z,102455.34
2023-02-12T15:11:16.110Z,102458.72
2023-02-12T15:21:24.544Z,102456.00
2023-02-12T15:31:32.816Z,102448.00
2023-02-12T15:41:42.009Z,102451.44
2023-02-12T15:51:47.941Z,102442.63
2023-02-12T16:01:58.648Z,102440.00
2023-02-12T16:12:11.275Z,102435.59
2023-02-12T16:22:19.408Z,102436.22
2023-02-12T16:32:44.324Z,102441.97
2023-02-12T16:43:08.690Z,102444.25
2023-02-12T16:53:37.357Z,102461.94
2023-02-12T17:03:41.330Z,102457.84
2023-02-12T17:13:47.667Z,102472.34
2023-02-12T17:23:53.761Z,102469.75
2023-02-12T17:33:58.886Z,102481.22
2023-02-12T17:44:02.914Z,102490.94
2023-02-12T17:54:08.265Z,102487.28
2023-02-12T18:04:12.086Z,102485.91
2023-02-12T18:14:17.190Z,102487.84
2023-02-12T18:24:20.809Z,102488.69
2023-02-12T18:34:26.701Z,102490.84
2023-02-12T18:44:30.488Z,102494.00
2023-02-12T18:54:35.769Z,102498.91
2023-02-12T19:04:39.529Z,102502.84
2023-02-12T19:14:44.711Z,102492.47
2023-02-12T19:24:51.733Z,102498.44
2023-02-12T19:34:56.882Z,102501.56
2023-02-12T19:45:00.798Z,102508.03
2023-02-12T19:55:06.833Z,102504.72
2023-02-12T20:05:10.607Z,102495.38
2023-02-12T20:15:16.629Z,102503.06
2023-02-12T20:25:20.323Z,102511.66
2023-02-12T20:35:26.418Z,102511.66
2023-02-12T20:45:30.289Z,102521.47
2023-02-12T20:55:35.391Z,102522.50
2023-02-12T21:05:39.384Z,102522.47
2023-02-12T21:15:44.644Z,102536.59
2023-02-12T21:25:48.545Z,102544.94
2023-02-12T21:35:53.562Z,102541.91
2023-02-12T21:45:57.174Z,102555.28
2023-02-12T21:56:05.454Z,102556.78
2023-02-12T22:06:10.128Z,102552.38
2023-02-12T22:16:18.417Z,102556.25
2023-02-12T22:26:25.993Z,102558.16
2023-02-12T22:36:31.866Z,102555.13
2023-02-12T22:46:36.127Z,102572.38
2023-02-12T22:56:41.451Z,102573.25
2023-02-12T23:06:46.095Z,102576.78
2023-02-12T23:16:51.124Z,102571.97
2023-02-12T23:26:55.051Z,102561.00
2023-02-12T23:37:00.129Z,102552.69
2023-02-12T23:47:03.712Z,102548.56
2023-02-12T23:57:08.677Z,102533.78
